Weather at Belen Regional Airport

Public forecast

Using degrees Fahrenheit for public forecast. Weather courtesy of forecast.io.

Closest aviation weather report (METAR) to Belen Regional Airport

Closest report is Albuquerque International Sunport, 26.2 nm (48.5 km) NNE.

2024/05/21 15:52 (retrieved 30 minutes ago)

KABQ 211552Z 25011KT 10SM FEW080 19/M02 A3002 RMK AO2 SLP098 T01891017

Closest aviation forecast (TAF) to Belen Regional Airport

Closest forecast is Albuquerque International Sunport, 26.2 nm (48.5 km) NNE.

2024/05/21 16:00 Ammendment (retrieved 22 minutes ago)

TAF AMD KABQ 211558Z 2116/2212 26016G26KT P6SM FEW120 FM220200 33009KT P6SM FEW250 FM220700 04008KT P6SM SKC